Terminal Aerodrome Forecast
Issued by NWS

Home | Current Version | Previous Version | Text Only | Print | Product List | Glossary Off
Versions: 1 2 3 4 5 6 7 8 9 10 11 12 13 14 15

000
FTUS45 KGGW 292300
TAFSDY
TAF
KSDY 292320Z 3000/3024 VRB03KT P6SM SCT200
     FM300900 VRB02KT P6SM VCFG SCT001 SCT150
     FM301700 32007KT P6SM SCT200
      AMD LTD TO CLD VIS AND WIND=

USA.gov is the U.S. government's official web portal to all federal, state and local government web resources and services.